الصفحة الرئيسية
METAR-TAF:

METAR-TAF

مطار :

تانابا, اليابان

دائرة عرض: 33-44N, خط طول: 135-23E, ارتفاع: 105 متر

مراقبة الطقس الحالي

تاريخ ووقت الإصدار 10ساعات و 12 دقيقة قبل الساعة 10:00UTC
ريح 4 عقدة من الجنوب الشرقي
درجة الحرارة 23°درجة مئوية
الرطوبة 83%
ضغط 1006 hPa
الرؤية 10 كم أو أكثر
غيوم قليلة على ارتفاع 2500 قدم
غيوم متفرقة على ارتفاع 18000 قدم
غيوم مفككة

METAR: RJBD 151000Z 14004KT 9999 FEW025 SCT180 BKN/// 23/20 Q1006

زمن: 05:12 (20:12 UTC)


TAF: مفقودة

أرصاد الطقس والتوقعات من أكثر من 4000 مطار (تقارير الطقس للمطار METAR والتنبؤ بالطقس بالمطارTAF).

المحطات المتاحة هي النقط الصفراء والحمراء على الخريطة.

حرك المؤشر فوق النقطة لمعرفة اسم المحطة.

ثم انقر لمعرفة أرصاد وتوقعات الطقس.

لتغيير الخارطة: اضغط على الأزرار الخضراء مع رمز الصليب الأسود للتكبير. على الزر الأخضر مع شرطة للتصغير، أو على الأسهم الخضراء للخرائط المجاورة.


METAR-TAF: